sensor_id;sensor_type;location;lat;lon;timestamp;P1;durP1;ratioP1;P2;durP2;ratioP2
545;SDS011;259;53.304;9.816;2023-04-25T00:01:20;1.50;;;1.40;;
545;SDS011;259;53.304;9.816;2023-04-25T00:03:49;1.40;;;1.30;;
545;SDS011;259;53.304;9.816;2023-04-25T00:06:15;1.63;;;1.53;;
545;SDS011;259;53.304;9.816;2023-04-25T00:08:42;1.10;;;1.10;;
545;SDS011;259;53.304;9.816;2023-04-25T00:11:08;1.27;;;1.20;;
545;SDS011;259;53.304;9.816;2023-04-25T00:13:34;1.40;;;1.30;;
545;SDS011;259;53.304;9.816;2023-04-25T00:15:59;1.83;;;1.73;;
545;SDS011;259;53.304;9.816;2023-04-25T00:18:25;1.33;;;1.23;;
545;SDS011;259;53.304;9.816;2023-04-25T00:20:54;1.60;;;1.47;;
545;SDS011;259;53.304;9.816;2023-04-25T00:23:20;1.23;;;1.13;;
545;SDS011;259;53.304;9.816;2023-04-25T00:25:47;1.30;;;1.30;;
545;SDS011;259;53.304;9.816;2023-04-25T00:28:14;1.73;;;1.63;;
545;SDS011;259;53.304;9.816;2023-04-25T00:30:42;1.50;;;1.40;;
545;SDS011;259;53.304;9.816;2023-04-25T00:33:08;1.53;;;1.43;;
545;SDS011;259;53.304;9.816;2023-04-25T00:35:35;1.20;;;1.20;;
545;SDS011;259;53.304;9.816;2023-04-25T00:38:01;1.23;;;1.13;;
545;SDS011;259;53.304;9.816;2023-04-25T00:40:27;1.73;;;1.30;;
545;SDS011;259;53.304;9.816;2023-04-25T00:42:53;1.67;;;1.30;;
545;SDS011;259;53.304;9.816;2023-04-25T00:45:19;1.40;;;1.30;;
545;SDS011;259;53.304;9.816;2023-04-25T00:47:45;1.30;;;1.20;;
545;SDS011;259;53.304;9.816;2023-04-25T00:50:12;1.40;;;1.30;;
545;SDS011;259;53.304;9.816;2023-04-25T00:52:43;1.63;;;1.53;;
545;SDS011;259;53.304;9.816;2023-04-25T00:55:10;1.13;;;1.13;;
545;SDS011;259;53.304;9.816;2023-04-25T00:57:37;1.00;;;1.00;;
545;SDS011;259;53.304;9.816;2023-04-25T01:00:07;1.43;;;1.33;;
545;SDS011;259;53.304;9.816;2023-04-25T01:02:35;1.57;;;1.47;;
545;SDS011;259;53.304;9.816;2023-04-25T01:05:01;1.43;;;1.33;;
545;SDS011;259;53.304;9.816;2023-04-25T01:07:28;1.67;;;1.20;;
545;SDS011;259;53.304;9.816;2023-04-25T01:09:54;1.90;;;1.33;;
545;SDS011;259;53.304;9.816;2023-04-25T01:12:20;1.40;;;1.30;;
545;SDS011;259;53.304;9.816;2023-04-25T01:14:46;1.43;;;1.20;;
545;SDS011;259;53.304;9.816;2023-04-25T01:17:12;1.30;;;1.20;;
545;SDS011;259;53.304;9.816;2023-04-25T01:19:38;1.23;;;1.13;;
545;SDS011;259;53.304;9.816;2023-04-25T01:22:04;1.93;;;1.40;;
545;SDS011;259;53.304;9.816;2023-04-25T01:24:31;1.97;;;1.33;;
545;SDS011;259;53.304;9.816;2023-04-25T01:26:58;1.60;;;1.50;;
545;SDS011;259;53.304;9.816;2023-04-25T01:29:25;1.13;;;1.13;;
545;SDS011;259;53.304;9.816;2023-04-25T01:31:52;1.93;;;1.83;;
545;SDS011;259;53.304;9.816;2023-04-25T01:34:18;1.37;;;1.17;;
545;SDS011;259;53.304;9.816;2023-04-25T01:36:44;1.40;;;1.30;;
545;SDS011;259;53.304;9.816;2023-04-25T01:39:10;1.40;;;1.30;;
545;SDS011;259;53.304;9.816;2023-04-25T01:41:36;1.63;;;1.43;;
545;SDS011;259;53.304;9.816;2023-04-25T01:44:02;2.23;;;1.57;;
545;SDS011;259;53.304;9.816;2023-04-25T01:46:28;3.43;;;1.80;;
545;SDS011;259;53.304;9.816;2023-04-25T01:48:55;1.30;;;1.20;;
545;SDS011;259;53.304;9.816;2023-04-25T01:51:21;1.87;;;1.60;;
545;SDS011;259;53.304;9.816;2023-04-25T01:53:46;1.50;;;1.40;;
545;SDS011;259;53.304;9.816;2023-04-25T01:56:12;1.50;;;1.40;;
545;SDS011;259;53.304;9.816;2023-04-25T01:58:38;1.57;;;1.23;;
545;SDS011;259;53.304;9.816;2023-04-25T02:01:04;1.50;;;1.37;;
545;SDS011;259;53.304;9.816;2023-04-25T02:03:31;1.70;;;1.10;;
545;SDS011;259;53.304;9.816;2023-04-25T02:05:57;1.43;;;1.23;;
545;SDS011;259;53.304;9.816;2023-04-25T02:08:23;1.20;;;1.10;;
545;SDS011;259;53.304;9.816;2023-04-25T02:10:50;1.47;;;1.37;;
545;SDS011;259;53.304;9.816;2023-04-25T02:13:16;1.77;;;1.33;;
545;SDS011;259;53.304;9.816;2023-04-25T02:15:42;1.20;;;1.13;;
545;SDS011;259;53.304;9.816;2023-04-25T02:18:08;1.73;;;1.17;;
545;SDS011;259;53.304;9.816;2023-04-25T02:20:35;1.33;;;1.20;;
545;SDS011;259;53.304;9.816;2023-04-25T02:23:01;2.87;;;1.33;;
545;SDS011;259;53.304;9.816;2023-04-25T02:25:28;1.30;;;1.20;;
545;SDS011;259;53.304;9.816;2023-04-25T02:27:53;1.53;;;1.43;;
545;SDS011;259;53.304;9.816;2023-04-25T02:30:19;1.20;;;1.10;;
545;SDS011;259;53.304;9.816;2023-04-25T02:32:45;1.90;;;1.30;;
545;SDS011;259;53.304;9.816;2023-04-25T02:35:11;1.67;;;1.50;;
545;SDS011;259;53.304;9.816;2023-04-25T02:37:37;1.50;;;1.40;;
545;SDS011;259;53.304;9.816;2023-04-25T02:40:05;1.80;;;1.43;;
545;SDS011;259;53.304;9.816;2023-04-25T02:42:32;1.60;;;1.50;;
545;SDS011;259;53.304;9.816;2023-04-25T02:44:58;2.07;;;1.43;;
545;SDS011;259;53.304;9.816;2023-04-25T02:47:23;1.60;;;1.50;;
545;SDS011;259;53.304;9.816;2023-04-25T02:49:49;1.63;;;1.10;;
545;SDS011;259;53.304;9.816;2023-04-25T02:52:15;2.83;;;1.20;;
545;SDS011;259;53.304;9.816;2023-04-25T02:54:41;1.83;;;1.73;;
545;SDS011;259;53.304;9.816;2023-04-25T02:57:06;1.30;;;1.20;;
545;SDS011;259;53.304;9.816;2023-04-25T02:59:32;1.50;;;1.40;;
545;SDS011;259;53.304;9.816;2023-04-25T03:01:58;1.30;;;1.20;;
545;SDS011;259;53.304;9.816;2023-04-25T03:04:24;1.67;;;1.37;;
545;SDS011;259;53.304;9.816;2023-04-25T03:06:50;1.30;;;1.03;;
545;SDS011;259;53.304;9.816;2023-04-25T03:09:16;1.77;;;1.63;;
545;SDS011;259;53.304;9.816;2023-04-25T03:11:44;2.20;;;1.40;;
545;SDS011;259;53.304;9.816;2023-04-25T03:14:10;1.53;;;1.30;;
545;SDS011;259;53.304;9.816;2023-04-25T03:16:37;1.63;;;1.50;;
545;SDS011;259;53.304;9.816;2023-04-25T03:19:03;1.60;;;1.30;;
545;SDS011;259;53.304;9.816;2023-04-25T03:21:30;1.13;;;1.13;;
545;SDS011;259;53.304;9.816;2023-04-25T03:23:58;1.37;;;1.27;;
545;SDS011;259;53.304;9.816;2023-04-25T03:26:25;2.00;;;1.50;;
545;SDS011;259;53.304;9.816;2023-04-25T03:28:50;1.90;;;1.70;;
545;SDS011;259;53.304;9.816;2023-04-25T03:31:16;1.80;;;1.70;;
545;SDS011;259;53.304;9.816;2023-04-25T03:33:42;2.43;;;1.40;;
545;SDS011;259;53.304;9.816;2023-04-25T03:36:07;1.40;;;1.30;;
545;SDS011;259;53.304;9.816;2023-04-25T03:38:33;1.77;;;1.40;;
545;SDS011;259;53.304;9.816;2023-04-25T03:40:59;1.30;;;1.20;;
545;SDS011;259;53.304;9.816;2023-04-25T03:43:26;1.27;;;1.17;;
545;SDS011;259;53.304;9.816;2023-04-25T03:45:51;1.60;;;1.50;;
545;SDS011;259;53.304;9.816;2023-04-25T03:48:17;1.37;;;1.27;;
545;SDS011;259;53.304;9.816;2023-04-25T03:50:44;1.60;;;1.50;;
545;SDS011;259;53.304;9.816;2023-04-25T03:53:10;2.30;;;1.77;;
545;SDS011;259;53.304;9.816;2023-04-25T03:55:35;1.63;;;1.43;;
545;SDS011;259;53.304;9.816;2023-04-25T03:58:01;2.10;;;1.73;;
545;SDS011;259;53.304;9.816;2023-04-25T04:00:27;1.60;;;1.50;;
545;SDS011;259;53.304;9.816;2023-04-25T04:02:52;1.90;;;1.47;;
545;SDS011;259;53.304;9.816;2023-04-25T04:05:18;1.83;;;1.43;;
545;SDS011;259;53.304;9.816;2023-04-25T04:07:44;3.27;;;1.50;;
545;SDS011;259;53.304;9.816;2023-04-25T04:10:09;1.20;;;1.10;;
545;SDS011;259;53.304;9.816;2023-04-25T04:12:36;2.20;;;1.33;;
545;SDS011;259;53.304;9.816;2023-04-25T04:15:03;1.60;;;1.43;;
545;SDS011;259;53.304;9.816;2023-04-25T04:17:30;1.70;;;1.60;;
545;SDS011;259;53.304;9.816;2023-04-25T04:19:56;1.47;;;1.37;;
545;SDS011;259;53.304;9.816;2023-04-25T04:22:22;1.40;;;1.30;;
545;SDS011;259;53.304;9.816;2023-04-25T04:24:48;1.77;;;1.30;;
545;SDS011;259;53.304;9.816;2023-04-25T04:27:15;2.57;;;1.40;;
545;SDS011;259;53.304;9.816;2023-04-25T04:29:42;1.83;;;1.33;;
545;SDS011;259;53.304;9.816;2023-04-25T04:32:08;2.90;;;1.70;;
545;SDS011;259;53.304;9.816;2023-04-25T04:34:34;1.97;;;1.20;;
545;SDS011;259;53.304;9.816;2023-04-25T04:37:00;2.00;;;1.57;;
545;SDS011;259;53.304;9.816;2023-04-25T04:39:26;1.87;;;1.60;;
545;SDS011;259;53.304;9.816;2023-04-25T04:41:52;1.53;;;1.40;;
545;SDS011;259;53.304;9.816;2023-04-25T04:44:18;1.53;;;1.27;;
545;SDS011;259;53.304;9.816;2023-04-25T04:46:44;1.77;;;1.17;;
545;SDS011;259;53.304;9.816;2023-04-25T04:49:11;2.40;;;1.67;;
545;SDS011;259;53.304;9.816;2023-04-25T04:51:38;1.93;;;1.40;;
545;SDS011;259;53.304;9.816;2023-04-25T04:54:05;2.10;;;1.57;;
545;SDS011;259;53.304;9.816;2023-04-25T04:56:31;2.30;;;1.63;;
545;SDS011;259;53.304;9.816;2023-04-25T04:58:57;1.87;;;1.57;;
545;SDS011;259;53.304;9.816;2023-04-25T05:01:23;3.53;;;1.47;;
545;SDS011;259;53.304;9.816;2023-04-25T05:03:49;2.07;;;1.97;;
545;SDS011;259;53.304;9.816;2023-04-25T05:06:16;3.07;;;1.50;;
545;SDS011;259;53.304;9.816;2023-04-25T05:08:45;2.50;;;1.70;;
545;SDS011;259;53.304;9.816;2023-04-25T05:11:11;1.43;;;1.33;;
545;SDS011;259;53.304;9.816;2023-04-25T05:13:36;1.67;;;1.50;;
545;SDS011;259;53.304;9.816;2023-04-25T05:16:02;2.03;;;1.67;;
545;SDS011;259;53.304;9.816;2023-04-25T05:18:28;2.13;;;1.40;;
545;SDS011;259;53.304;9.816;2023-04-25T05:20:54;1.50;;;1.40;;
545;SDS011;259;53.304;9.816;2023-04-25T05:23:20;1.60;;;1.50;;
545;SDS011;259;53.304;9.816;2023-04-25T05:25:46;1.73;;;1.63;;
545;SDS011;259;53.304;9.816;2023-04-25T05:28:12;1.70;;;1.60;;
545;SDS011;259;53.304;9.816;2023-04-25T05:30:38;1.80;;;1.43;;
545;SDS011;259;53.304;9.816;2023-04-25T05:33:04;3.90;;;1.97;;
545;SDS011;259;53.304;9.816;2023-04-25T05:35:30;3.83;;;1.47;;
545;SDS011;259;53.304;9.816;2023-04-25T05:37:56;3.53;;;1.80;;
545;SDS011;259;53.304;9.816;2023-04-25T05:40:21;2.00;;;1.70;;
545;SDS011;259;53.304;9.816;2023-04-25T05:42:47;2.40;;;1.83;;
545;SDS011;259;53.304;9.816;2023-04-25T05:45:13;2.03;;;1.57;;
545;SDS011;259;53.304;9.816;2023-04-25T05:47:39;2.20;;;1.70;;
545;SDS011;259;53.304;9.816;2023-04-25T05:50:04;2.77;;;1.90;;
545;SDS011;259;53.304;9.816;2023-04-25T05:52:31;2.40;;;1.40;;
545;SDS011;259;53.304;9.816;2023-04-25T05:54:57;2.93;;;1.47;;
545;SDS011;259;53.304;9.816;2023-04-25T05:57:23;2.13;;;1.60;;
545;SDS011;259;53.304;9.816;2023-04-25T05:59:50;1.60;;;1.50;;
545;SDS011;259;53.304;9.816;2023-04-25T06:02:18;1.67;;;1.50;;
545;SDS011;259;53.304;9.816;2023-04-25T06:04:45;2.30;;;1.37;;
545;SDS011;259;53.304;9.816;2023-04-25T06:07:11;3.20;;;1.73;;
545;SDS011;259;53.304;9.816;2023-04-25T06:09:38;1.40;;;1.30;;
545;SDS011;259;53.304;9.816;2023-04-25T06:12:06;1.90;;;1.40;;
545;SDS011;259;53.304;9.816;2023-04-25T06:14:33;2.03;;;1.50;;
545;SDS011;259;53.304;9.816;2023-04-25T06:16:59;1.73;;;1.40;;
545;SDS011;259;53.304;9.816;2023-04-25T06:19:24;3.77;;;2.47;;
545;SDS011;259;53.304;9.816;2023-04-25T06:21:50;2.40;;;1.80;;
545;SDS011;259;53.304;9.816;2023-04-25T06:24:16;4.10;;;1.50;;
545;SDS011;259;53.304;9.816;2023-04-25T06:26:41;1.40;;;1.10;;
545;SDS011;259;53.304;9.816;2023-04-25T06:29:07;2.57;;;1.80;;
545;SDS011;259;53.304;9.816;2023-04-25T06:31:33;3.80;;;2.00;;
545;SDS011;259;53.304;9.816;2023-04-25T06:33:58;2.30;;;1.63;;
545;SDS011;259;53.304;9.816;2023-04-25T06:36:24;1.50;;;1.20;;
545;SDS011;259;53.304;9.816;2023-04-25T06:38:51;5.50;;;1.67;;
545;SDS011;259;53.304;9.816;2023-04-25T06:41:20;1.60;;;1.50;;
545;SDS011;259;53.304;9.816;2023-04-25T06:43:46;1.60;;;1.30;;
545;SDS011;259;53.304;9.816;2023-04-25T06:46:11;1.53;;;1.07;;
545;SDS011;259;53.304;9.816;2023-04-25T06:48:37;1.93;;;1.73;;
545;SDS011;259;53.304;9.816;2023-04-25T06:51:03;1.90;;;1.50;;
545;SDS011;259;53.304;9.816;2023-04-25T06:53:29;3.90;;;1.77;;
545;SDS011;259;53.304;9.816;2023-04-25T06:55:55;1.13;;;1.03;;
545;SDS011;259;53.304;9.816;2023-04-25T06:58:20;2.40;;;1.70;;
545;SDS011;259;53.304;9.816;2023-04-25T07:00:46;2.30;;;1.60;;
545;SDS011;259;53.304;9.816;2023-04-25T07:03:11;1.87;;;1.50;;
545;SDS011;259;53.304;9.816;2023-04-25T07:05:37;2.03;;;1.50;;
545;SDS011;259;53.304;9.816;2023-04-25T07:08:03;2.63;;;1.73;;
545;SDS011;259;53.304;9.816;2023-04-25T07:10:29;1.47;;;1.27;;
545;SDS011;259;53.304;9.816;2023-04-25T07:12:55;2.30;;;1.43;;
545;SDS011;259;53.304;9.816;2023-04-25T07:15:20;1.77;;;1.33;;
545;SDS011;259;53.304;9.816;2023-04-25T07:17:46;1.40;;;1.30;;
545;SDS011;259;53.304;9.816;2023-04-25T07:20:12;3.03;;;1.53;;
545;SDS011;259;53.304;9.816;2023-04-25T07:22:37;1.83;;;1.63;;
545;SDS011;259;53.304;9.816;2023-04-25T07:25:03;2.70;;;1.50;;
545;SDS011;259;53.304;9.816;2023-04-25T07:27:30;2.07;;;1.53;;
545;SDS011;259;53.304;9.816;2023-04-25T07:29:56;2.50;;;1.23;;
545;SDS011;259;53.304;9.816;2023-04-25T07:32:22;4.03;;;1.70;;
545;SDS011;259;53.304;9.816;2023-04-25T07:34:48;1.37;;;1.20;;
545;SDS011;259;53.304;9.816;2023-04-25T07:37:14;1.33;;;1.20;;
545;SDS011;259;53.304;9.816;2023-04-25T07:39:40;1.43;;;1.20;;
545;SDS011;259;53.304;9.816;2023-04-25T07:42:06;1.57;;;1.47;;
545;SDS011;259;53.304;9.816;2023-04-25T07:44:33;1.47;;;1.23;;
545;SDS011;259;53.304;9.816;2023-04-25T07:47:06;1.60;;;1.50;;
545;SDS011;259;53.304;9.816;2023-04-25T07:49:37;1.40;;;1.10;;
545;SDS011;259;53.304;9.816;2023-04-25T07:52:03;2.60;;;1.50;;
545;SDS011;259;53.304;9.816;2023-04-25T07:54:33;1.43;;;1.33;;
545;SDS011;259;53.304;9.816;2023-04-25T07:56:59;2.00;;;1.23;;
545;SDS011;259;53.304;9.816;2023-04-25T07:59:25;1.90;;;1.30;;
545;SDS011;259;53.304;9.816;2023-04-25T08:01:51;1.43;;;1.23;;
545;SDS011;259;53.304;9.816;2023-04-25T08:04:16;1.57;;;1.47;;
545;SDS011;259;53.304;9.816;2023-04-25T08:06:42;1.63;;;1.37;;
545;SDS011;259;53.304;9.816;2023-04-25T08:09:08;1.07;;;0.97;;
545;SDS011;259;53.304;9.816;2023-04-25T08:11:34;1.43;;;1.20;;
545;SDS011;259;53.304;9.816;2023-04-25T08:14:00;2.07;;;1.20;;
545;SDS011;259;53.304;9.816;2023-04-25T08:16:27;1.90;;;1.37;;
545;SDS011;259;53.304;9.816;2023-04-25T08:18:53;1.93;;;1.20;;
545;SDS011;259;53.304;9.816;2023-04-25T08:21:19;1.47;;;1.30;;
545;SDS011;259;53.304;9.816;2023-04-25T08:23:45;3.43;;;1.47;;
545;SDS011;259;53.304;9.816;2023-04-25T08:26:11;1.80;;;1.70;;
545;SDS011;259;53.304;9.816;2023-04-25T08:28:36;3.37;;;1.70;;
545;SDS011;259;53.304;9.816;2023-04-25T08:31:02;1.53;;;1.43;;
545;SDS011;259;53.304;9.816;2023-04-25T08:33:28;1.60;;;1.50;;
545;SDS011;259;53.304;9.816;2023-04-25T08:35:55;1.60;;;1.50;;
545;SDS011;259;53.304;9.816;2023-04-25T08:38:21;1.10;;;0.97;;
545;SDS011;259;53.304;9.816;2023-04-25T08:40:48;1.40;;;1.30;;
545;SDS011;259;53.304;9.816;2023-04-25T08:43:17;1.30;;;1.20;;
545;SDS011;259;53.304;9.816;2023-04-25T08:45:44;1.77;;;1.50;;
545;SDS011;259;53.304;9.816;2023-04-25T08:48:12;2.07;;;1.47;;
545;SDS011;259;53.304;9.816;2023-04-25T08:50:45;2.13;;;1.70;;
545;SDS011;259;53.304;9.816;2023-04-25T08:53:22;2.40;;;1.17;;
545;SDS011;259;53.304;9.816;2023-04-25T08:55:59;1.77;;;1.27;;
545;SDS011;259;53.304;9.816;2023-04-25T08:58:30;1.80;;;1.37;;
545;SDS011;259;53.304;9.816;2023-04-25T09:00:57;1.47;;;1.17;;
545;SDS011;259;53.304;9.816;2023-04-25T09:03:23;1.30;;;1.00;;
545;SDS011;259;53.304;9.816;2023-04-25T09:05:48;1.40;;;1.30;;
545;SDS011;259;53.304;9.816;2023-04-25T09:08:15;3.13;;;1.23;;
545;SDS011;259;53.304;9.816;2023-04-25T09:10:40;1.53;;;1.20;;
545;SDS011;259;53.304;9.816;2023-04-25T09:13:07;0.93;;;0.90;;
545;SDS011;259;53.304;9.816;2023-04-25T09:15:47;1.83;;;1.00;;
545;SDS011;259;53.304;9.816;2023-04-25T09:18:21;1.57;;;1.00;;
545;SDS011;259;53.304;9.816;2023-04-25T09:20:56;1.00;;;0.80;;
545;SDS011;259;53.304;9.816;2023-04-25T09:23:30;1.23;;;1.13;;
545;SDS011;259;53.304;9.816;2023-04-25T09:25:56;0.70;;;0.70;;
545;SDS011;259;53.304;9.816;2023-04-25T09:28:22;1.10;;;1.00;;
545;SDS011;259;53.304;9.816;2023-04-25T09:30:53;1.20;;;1.10;;
545;SDS011;259;53.304;9.816;2023-04-25T09:33:26;1.43;;;1.30;;
545;SDS011;259;53.304;9.816;2023-04-25T09:36:03;1.20;;;1.10;;
545;SDS011;259;53.304;9.816;2023-04-25T09:38:32;1.10;;;1.00;;
545;SDS011;259;53.304;9.816;2023-04-25T09:41:07;1.50;;;1.40;;
545;SDS011;259;53.304;9.816;2023-04-25T09:43:34;1.20;;;0.90;;
545;SDS011;259;53.304;9.816;2023-04-25T09:46:00;1.20;;;1.03;;
545;SDS011;259;53.304;9.816;2023-04-25T09:48:27;0.80;;;0.80;;
545;SDS011;259;53.304;9.816;2023-04-25T09:51:03;1.10;;;1.00;;
545;SDS011;259;53.304;9.816;2023-04-25T09:53:30;1.77;;;1.40;;
545;SDS011;259;53.304;9.816;2023-04-25T09:56:04;1.60;;;0.80;;
545;SDS011;259;53.304;9.816;2023-04-25T09:58:32;1.20;;;1.00;;
545;SDS011;259;53.304;9.816;2023-04-25T10:01:00;1.67;;;0.80;;
545;SDS011;259;53.304;9.816;2023-04-25T10:03:29;1.23;;;1.13;;
545;SDS011;259;53.304;9.816;2023-04-25T10:05:58;1.30;;;1.20;;
545;SDS011;259;53.304;9.816;2023-04-25T10:08:33;1.43;;;1.20;;
545;SDS011;259;53.304;9.816;2023-04-25T10:11:06;1.23;;;1.10;;
545;SDS011;259;53.304;9.816;2023-04-25T10:13:33;1.37;;;0.87;;
545;SDS011;259;53.304;9.816;2023-04-25T10:16:04;1.33;;;1.23;;
545;SDS011;259;53.304;9.816;2023-04-25T10:18:30;0.93;;;0.80;;
545;SDS011;259;53.304;9.816;2023-04-25T10:20:59;1.10;;;1.00;;
545;SDS011;259;53.304;9.816;2023-04-25T10:23:30;1.10;;;0.87;;
545;SDS011;259;53.304;9.816;2023-04-25T10:25:57;1.60;;;0.90;;
545;SDS011;259;53.304;9.816;2023-04-25T10:28:23;1.10;;;1.00;;
545;SDS011;259;53.304;9.816;2023-04-25T10:30:59;2.03;;;1.57;;
545;SDS011;259;53.304;9.816;2023-04-25T10:33:39;1.03;;;0.93;;
545;SDS011;259;53.304;9.816;2023-04-25T10:36:08;1.00;;;0.80;;
545;SDS011;259;53.304;9.816;2023-04-25T10:38:39;0.67;;;0.67;;
545;SDS011;259;53.304;9.816;2023-04-25T10:41:08;1.10;;;1.00;;
545;SDS011;259;53.304;9.816;2023-04-25T10:46:39;0.83;;;0.80;;
545;SDS011;259;53.304;9.816;2023-04-25T10:49:01;0.83;;;0.83;;
545;SDS011;259;53.304;9.816;2023-04-25T10:51:28;1.90;;;0.83;;
545;SDS011;259;53.304;9.816;2023-04-25T10:56:31;1.20;;;0.87;;
545;SDS011;259;53.304;9.816;2023-04-25T10:59:15;1.43;;;1.20;;
545;SDS011;259;53.304;9.816;2023-04-25T11:01:47;1.77;;;1.00;;
545;SDS011;259;53.304;9.816;2023-04-25T11:04:25;1.23;;;1.13;;
545;SDS011;259;53.304;9.816;2023-04-25T11:09:45;1.70;;;1.07;;
545;SDS011;259;53.304;9.816;2023-04-25T11:12:11;1.60;;;1.50;;
545;SDS011;259;53.304;9.816;2023-04-25T11:14:38;0.80;;;0.80;;
545;SDS011;259;53.304;9.816;2023-04-25T11:17:04;1.17;;;0.87;;
545;SDS011;259;53.304;9.816;2023-04-25T11:19:30;2.13;;;1.07;;
545;SDS011;259;53.304;9.816;2023-04-25T11:21:56;1.00;;;0.90;;
545;SDS011;259;53.304;9.816;2023-04-25T11:24:31;0.90;;;0.90;;
545;SDS011;259;53.304;9.816;2023-04-25T11:27:02;1.33;;;0.70;;
545;SDS011;259;53.304;9.816;2023-04-25T11:29:29;1.67;;;1.30;;
545;SDS011;259;53.304;9.816;2023-04-25T11:31:56;1.03;;;0.93;;
545;SDS011;259;53.304;9.816;2023-04-25T11:34:23;1.40;;;1.00;;
545;SDS011;259;53.304;9.816;2023-04-25T11:36:50;1.70;;;1.00;;
545;SDS011;259;53.304;9.816;2023-04-25T11:39:19;1.33;;;1.23;;
545;SDS011;259;53.304;9.816;2023-04-25T11:41:46;1.30;;;1.07;;
545;SDS011;259;53.304;9.816;2023-04-25T11:44:15;0.83;;;0.80;;
545;SDS011;259;53.304;9.816;2023-04-25T11:46:42;0.80;;;0.80;;
545;SDS011;259;53.304;9.816;2023-04-25T11:49:08;0.93;;;0.80;;
545;SDS011;259;53.304;9.816;2023-04-25T11:51:38;2.53;;;1.00;;
545;SDS011;259;53.304;9.816;2023-04-25T11:54:08;0.90;;;0.83;;
545;SDS011;259;53.304;9.816;2023-04-25T11:56:34;2.30;;;0.87;;
545;SDS011;259;53.304;9.816;2023-04-25T11:59:00;1.43;;;1.20;;
545;SDS011;259;53.304;9.816;2023-04-25T12:01:29;0.90;;;0.80;;
545;SDS011;259;53.304;9.816;2023-04-25T12:04:13;1.37;;;0.90;;
545;SDS011;259;53.304;9.816;2023-04-25T12:06:57;1.03;;;0.83;;
545;SDS011;259;53.304;9.816;2023-04-25T12:09:32;1.20;;;1.00;;
545;SDS011;259;53.304;9.816;2023-04-25T12:11:59;1.97;;;1.00;;
545;SDS011;259;53.304;9.816;2023-04-25T12:14:31;1.20;;;1.07;;
545;SDS011;259;53.304;9.816;2023-04-25T12:16:59;1.50;;;1.20;;
545;SDS011;259;53.304;9.816;2023-04-25T12:19:34;2.07;;;1.50;;
545;SDS011;259;53.304;9.816;2023-04-25T12:22:02;1.30;;;0.73;;
545;SDS011;259;53.304;9.816;2023-04-25T12:24:28;1.50;;;0.90;;
545;SDS011;259;53.304;9.816;2023-04-25T12:26:59;1.93;;;0.87;;
545;SDS011;259;53.304;9.816;2023-04-25T12:29:30;1.37;;;0.70;;
545;SDS011;259;53.304;9.816;2023-04-25T12:31:57;0.70;;;0.70;;
545;SDS011;259;53.304;9.816;2023-04-25T12:34:24;0.90;;;0.80;;
545;SDS011;259;53.304;9.816;2023-04-25T12:36:51;1.50;;;0.80;;
545;SDS011;259;53.304;9.816;2023-04-25T12:39:18;1.10;;;0.80;;
545;SDS011;259;53.304;9.816;2023-04-25T12:41:48;3.40;;;0.90;;
545;SDS011;259;53.304;9.816;2023-04-25T12:44:15;0.80;;;0.70;;
545;SDS011;259;53.304;9.816;2023-04-25T12:46:41;1.53;;;0.87;;
545;SDS011;259;53.304;9.816;2023-04-25T12:49:07;1.60;;;0.90;;
545;SDS011;259;53.304;9.816;2023-04-25T12:51:33;1.00;;;0.87;;
545;SDS011;259;53.304;9.816;2023-04-25T12:54:01;3.80;;;1.53;;
545;SDS011;259;53.304;9.816;2023-04-25T12:56:29;0.93;;;0.83;;
545;SDS011;259;53.304;9.816;2023-04-25T12:58:55;1.30;;;0.73;;
545;SDS011;259;53.304;9.816;2023-04-25T13:01:22;0.83;;;0.80;;
545;SDS011;259;53.304;9.816;2023-04-25T13:03:48;1.43;;;0.90;;
545;SDS011;259;53.304;9.816;2023-04-25T13:06:15;1.33;;;0.80;;
545;SDS011;259;53.304;9.816;2023-04-25T13:08:41;1.07;;;0.83;;
545;SDS011;259;53.304;9.816;2023-04-25T13:11:07;1.00;;;1.00;;
545;SDS011;259;53.304;9.816;2023-04-25T13:13:33;1.23;;;0.90;;
545;SDS011;259;53.304;9.816;2023-04-25T13:16:02;0.70;;;0.63;;
545;SDS011;259;53.304;9.816;2023-04-25T13:18:30;1.53;;;0.83;;
545;SDS011;259;53.304;9.816;2023-04-25T13:20:56;1.03;;;0.60;;
545;SDS011;259;53.304;9.816;2023-04-25T13:23:24;1.00;;;0.70;;
545;SDS011;259;53.304;9.816;2023-04-25T13:25:52;1.43;;;0.77;;
545;SDS011;259;53.304;9.816;2023-04-25T13:28:18;1.33;;;1.07;;
545;SDS011;259;53.304;9.816;2023-04-25T13:30:44;1.43;;;0.90;;
545;SDS011;259;53.304;9.816;2023-04-25T13:33:10;1.13;;;1.00;;
545;SDS011;259;53.304;9.816;2023-04-25T13:35:37;1.20;;;0.90;;
545;SDS011;259;53.304;9.816;2023-04-25T13:38:03;1.00;;;0.73;;
545;SDS011;259;53.304;9.816;2023-04-25T13:40:29;1.43;;;1.23;;
545;SDS011;259;53.304;9.816;2023-04-25T13:42:55;1.20;;;0.80;;
545;SDS011;259;53.304;9.816;2023-04-25T13:45:21;1.53;;;1.00;;
545;SDS011;259;53.304;9.816;2023-04-25T13:47:46;1.67;;;0.80;;
545;SDS011;259;53.304;9.816;2023-04-25T13:50:12;1.00;;;0.90;;
545;SDS011;259;53.304;9.816;2023-04-25T13:52:39;1.03;;;0.97;;
545;SDS011;259;53.304;9.816;2023-04-25T13:55:05;0.93;;;0.60;;
545;SDS011;259;53.304;9.816;2023-04-25T13:57:33;1.43;;;0.63;;
545;SDS011;259;53.304;9.816;2023-04-25T14:00:00;1.00;;;0.60;;
545;SDS011;259;53.304;9.816;2023-04-25T14:02:31;0.60;;;0.60;;
545;SDS011;259;53.304;9.816;2023-04-25T14:04:57;1.50;;;1.10;;
545;SDS011;259;53.304;9.816;2023-04-25T14:07:22;1.43;;;0.67;;
545;SDS011;259;53.304;9.816;2023-04-25T14:09:48;1.33;;;0.60;;
545;SDS011;259;53.304;9.816;2023-04-25T14:12:16;0.90;;;0.80;;
545;SDS011;259;53.304;9.816;2023-04-25T14:14:42;1.13;;;0.90;;
545;SDS011;259;53.304;9.816;2023-04-25T14:17:08;0.90;;;0.90;;
545;SDS011;259;53.304;9.816;2023-04-25T14:19:34;1.10;;;0.80;;
545;SDS011;259;53.304;9.816;2023-04-25T14:22:00;0.70;;;0.67;;
545;SDS011;259;53.304;9.816;2023-04-25T14:24:25;2.20;;;0.90;;
545;SDS011;259;53.304;9.816;2023-04-25T14:26:51;1.03;;;0.63;;
545;SDS011;259;53.304;9.816;2023-04-25T14:29:17;0.93;;;0.80;;
545;SDS011;259;53.304;9.816;2023-04-25T14:31:42;1.17;;;1.00;;
545;SDS011;259;53.304;9.816;2023-04-25T14:34:08;1.20;;;0.67;;
545;SDS011;259;53.304;9.816;2023-04-25T14:36:35;1.40;;;0.80;;
545;SDS011;259;53.304;9.816;2023-04-25T14:39:01;1.17;;;1.07;;
545;SDS011;259;53.304;9.816;2023-04-25T14:41:27;0.80;;;0.70;;
545;SDS011;259;53.304;9.816;2023-04-25T14:43:53;0.90;;;0.70;;
545;SDS011;259;53.304;9.816;2023-04-25T14:46:20;1.33;;;0.70;;
545;SDS011;259;53.304;9.816;2023-04-25T14:48:47;1.00;;;0.80;;
545;SDS011;259;53.304;9.816;2023-04-25T14:51:12;1.03;;;0.70;;
545;SDS011;259;53.304;9.816;2023-04-25T14:53:39;0.97;;;0.83;;
545;SDS011;259;53.304;9.816;2023-04-25T14:56:05;1.23;;;1.03;;
545;SDS011;259;53.304;9.816;2023-04-25T14:58:32;1.43;;;0.93;;
545;SDS011;259;53.304;9.816;2023-04-25T15:00:58;0.70;;;0.60;;
545;SDS011;259;53.304;9.816;2023-04-25T15:03:25;0.70;;;0.60;;
545;SDS011;259;53.304;9.816;2023-04-25T15:05:51;0.60;;;0.60;;
545;SDS011;259;53.304;9.816;2023-04-25T15:08:17;1.10;;;0.90;;
545;SDS011;259;53.304;9.816;2023-04-25T15:10:43;0.77;;;0.60;;
545;SDS011;259;53.304;9.816;2023-04-25T15:13:09;0.87;;;0.63;;
545;SDS011;259;53.304;9.816;2023-04-25T15:15:35;1.40;;;0.90;;
545;SDS011;259;53.304;9.816;2023-04-25T15:18:01;0.80;;;0.67;;
545;SDS011;259;53.304;9.816;2023-04-25T15:20:27;0.87;;;0.80;;
545;SDS011;259;53.304;9.816;2023-04-25T15:22:53;1.17;;;0.60;;
545;SDS011;259;53.304;9.816;2023-04-25T15:25:19;0.60;;;0.50;;
545;SDS011;259;53.304;9.816;2023-04-25T15:27:45;2.07;;;1.00;;
545;SDS011;259;53.304;9.816;2023-04-25T15:30:13;0.87;;;0.53;;
545;SDS011;259;53.304;9.816;2023-04-25T15:32:41;0.90;;;0.80;;
545;SDS011;259;53.304;9.816;2023-04-25T15:35:11;1.33;;;0.77;;
545;SDS011;259;53.304;9.816;2023-04-25T15:37:39;0.80;;;0.77;;
545;SDS011;259;53.304;9.816;2023-04-25T15:42:40;1.00;;;0.70;;
545;SDS011;259;53.304;9.816;2023-04-25T15:45:08;0.90;;;0.67;;
545;SDS011;259;53.304;9.816;2023-04-25T15:47:36;1.60;;;0.87;;
545;SDS011;259;53.304;9.816;2023-04-25T15:50:03;1.23;;;0.70;;
545;SDS011;259;53.304;9.816;2023-04-25T15:52:32;1.00;;;0.90;;
545;SDS011;259;53.304;9.816;2023-04-25T15:54:58;0.97;;;0.60;;